sensor_id;sensor_type;location;lat;lon;timestamp;P1;durP1;ratioP1;P2;durP2;ratioP2
74044;SDS011;62389;51.412;5.436;2024-01-15T00:00:16;27.75;;;12.15;;
74044;SDS011;62389;51.412;5.436;2024-01-15T00:02:41;34.10;;;13.40;;
74044;SDS011;62389;51.412;5.436;2024-01-15T00:05:07;27.25;;;12.02;;
74044;SDS011;62389;51.412;5.436;2024-01-15T00:07:32;28.00;;;11.55;;
74044;SDS011;62389;51.412;5.436;2024-01-15T00:09:57;32.88;;;12.90;;
74044;SDS011;62389;51.412;5.436;2024-01-15T00:12:23;28.50;;;11.65;;
74044;SDS011;62389;51.412;5.436;2024-01-15T00:14:48;30.42;;;11.80;;
74044;SDS011;62389;51.412;5.436;2024-01-15T00:17:13;22.98;;;10.35;;
74044;SDS011;62389;51.412;5.436;2024-01-15T00:19:39;28.25;;;11.82;;
74044;SDS011;62389;51.412;5.436;2024-01-15T00:22:04;27.05;;;11.65;;
74044;SDS011;62389;51.412;5.436;2024-01-15T00:24:30;21.40;;;9.77;;
74044;SDS011;62389;51.412;5.436;2024-01-15T00:26:55;23.40;;;9.05;;
74044;SDS011;62389;51.412;5.436;2024-01-15T00:29:20;18.45;;;8.32;;
74044;SDS011;62389;51.412;5.436;2024-01-15T00:31:47;17.23;;;7.97;;
74044;SDS011;62389;51.412;5.436;2024-01-15T00:34:12;18.00;;;8.18;;
74044;SDS011;62389;51.412;5.436;2024-01-15T00:36:37;19.67;;;8.77;;
74044;SDS011;62389;51.412;5.436;2024-01-15T00:39:03;11.65;;;5.07;;
74044;SDS011;62389;51.412;5.436;2024-01-15T00:41:30;13.57;;;5.95;;
74044;SDS011;62389;51.412;5.436;2024-01-15T00:43:56;11.40;;;4.43;;
74044;SDS011;62389;51.412;5.436;2024-01-15T00:46:21;11.50;;;4.25;;
74044;SDS011;62389;51.412;5.436;2024-01-15T00:48:46;10.70;;;4.43;;
74044;SDS011;62389;51.412;5.436;2024-01-15T00:51:12;9.05;;;3.38;;
74044;SDS011;62389;51.412;5.436;2024-01-15T00:53:38;7.03;;;3.25;;
74044;SDS011;62389;51.412;5.436;2024-01-15T00:56:03;3.95;;;2.35;;
74044;SDS011;62389;51.412;5.436;2024-01-15T00:58:29;5.97;;;1.75;;
74044;SDS011;62389;51.412;5.436;2024-01-15T01:00:54;4.53;;;2.00;;
74044;SDS011;62389;51.412;5.436;2024-01-15T01:03:20;7.55;;;2.03;;
74044;SDS011;62389;51.412;5.436;2024-01-15T01:05:45;3.75;;;1.55;;
74044;SDS011;62389;51.412;5.436;2024-01-15T01:08:11;4.45;;;2.05;;
74044;SDS011;62389;51.412;5.436;2024-01-15T01:10:36;4.38;;;1.67;;
74044;SDS011;62389;51.412;5.436;2024-01-15T01:13:02;2.42;;;1.23;;
74044;SDS011;62389;51.412;5.436;2024-01-15T01:15:27;3.17;;;1.60;;
74044;SDS011;62389;51.412;5.436;2024-01-15T01:17:53;6.97;;;2.30;;
74044;SDS011;62389;51.412;5.436;2024-01-15T01:20:18;7.25;;;2.88;;
74044;SDS011;62389;51.412;5.436;2024-01-15T01:22:43;5.05;;;2.20;;
74044;SDS011;62389;51.412;5.436;2024-01-15T01:25:09;5.72;;;2.50;;
74044;SDS011;62389;51.412;5.436;2024-01-15T01:27:35;6.35;;;3.08;;
74044;SDS011;62389;51.412;5.436;2024-01-15T01:30:00;7.85;;;3.40;;
74044;SDS011;62389;51.412;5.436;2024-01-15T01:32:26;8.15;;;3.80;;
74044;SDS011;62389;51.412;5.436;2024-01-15T01:34:51;10.65;;;3.75;;
74044;SDS011;62389;51.412;5.436;2024-01-15T01:37:16;13.85;;;3.25;;
74044;SDS011;62389;51.412;5.436;2024-01-15T01:39:43;8.75;;;3.95;;
74044;SDS011;62389;51.412;5.436;2024-01-15T01:42:09;9.50;;;3.72;;
74044;SDS011;62389;51.412;5.436;2024-01-15T01:44:35;6.72;;;4.00;;
74044;SDS011;62389;51.412;5.436;2024-01-15T01:47:01;10.40;;;4.47;;
74044;SDS011;62389;51.412;5.436;2024-01-15T01:49:28;8.73;;;4.45;;
74044;SDS011;62389;51.412;5.436;2024-01-15T01:51:57;7.25;;;4.28;;
74044;SDS011;62389;51.412;5.436;2024-01-15T01:54:25;8.35;;;4.47;;
74044;SDS011;62389;51.412;5.436;2024-01-15T01:56:54;12.00;;;4.80;;
74044;SDS011;62389;51.412;5.436;2024-01-15T01:59:19;8.88;;;4.93;;
74044;SDS011;62389;51.412;5.436;2024-01-15T02:01:46;11.07;;;4.82;;
74044;SDS011;62389;51.412;5.436;2024-01-15T02:04:11;15.40;;;5.07;;
74044;SDS011;62389;51.412;5.436;2024-01-15T02:06:37;10.00;;;4.55;;
74044;SDS011;62389;51.412;5.436;2024-01-15T02:09:03;10.15;;;4.80;;
74044;SDS011;62389;51.412;5.436;2024-01-15T02:11:30;12.13;;;4.35;;
74044;SDS011;62389;51.412;5.436;2024-01-15T02:13:56;12.35;;;5.13;;
74044;SDS011;62389;51.412;5.436;2024-01-15T02:16:21;10.35;;;4.50;;
74044;SDS011;62389;51.412;5.436;2024-01-15T02:18:47;6.70;;;3.58;;
74044;SDS011;62389;51.412;5.436;2024-01-15T02:21:12;6.82;;;3.00;;
74044;SDS011;62389;51.412;5.436;2024-01-15T02:23:38;10.38;;;2.72;;
74044;SDS011;62389;51.412;5.436;2024-01-15T02:26:04;6.40;;;3.33;;
74044;SDS011;62389;51.412;5.436;2024-01-15T02:28:30;7.38;;;3.00;;
74044;SDS011;62389;51.412;5.436;2024-01-15T02:30:57;7.00;;;2.17;;
74044;SDS011;62389;51.412;5.436;2024-01-15T02:33:22;6.22;;;2.08;;
74044;SDS011;62389;51.412;5.436;2024-01-15T02:35:47;5.22;;;1.92;;
74044;SDS011;62389;51.412;5.436;2024-01-15T02:38:15;6.82;;;2.33;;
74044;SDS011;62389;51.412;5.436;2024-01-15T02:40:41;6.07;;;1.90;;
74044;SDS011;62389;51.412;5.436;2024-01-15T02:43:07;10.55;;;1.80;;
74044;SDS011;62389;51.412;5.436;2024-01-15T02:45:32;2.70;;;1.27;;
74044;SDS011;62389;51.412;5.436;2024-01-15T02:47:58;4.53;;;1.50;;
74044;SDS011;62389;51.412;5.436;2024-01-15T02:50:23;5.43;;;1.58;;
74044;SDS011;62389;51.412;5.436;2024-01-15T02:52:48;2.28;;;1.23;;
74044;SDS011;62389;51.412;5.436;2024-01-15T02:55:14;3.45;;;1.83;;
74044;SDS011;62389;51.412;5.436;2024-01-15T02:57:39;6.72;;;1.90;;
74044;SDS011;62389;51.412;5.436;2024-01-15T03:00:05;6.47;;;1.30;;
74044;SDS011;62389;51.412;5.436;2024-01-15T03:02:32;4.07;;;1.75;;
74044;SDS011;62389;51.412;5.436;2024-01-15T03:04:57;3.72;;;1.58;;
74044;SDS011;62389;51.412;5.436;2024-01-15T03:07:23;4.40;;;1.63;;
74044;SDS011;62389;51.412;5.436;2024-01-15T03:09:48;8.02;;;2.17;;
74044;SDS011;62389;51.412;5.436;2024-01-15T03:12:13;3.58;;;1.80;;
74044;SDS011;62389;51.412;5.436;2024-01-15T03:14:39;7.30;;;2.00;;
74044;SDS011;62389;51.412;5.436;2024-01-15T03:17:04;5.85;;;2.88;;
74044;SDS011;62389;51.412;5.436;2024-01-15T03:19:29;6.57;;;2.67;;
74044;SDS011;62389;51.412;5.436;2024-01-15T03:21:55;5.60;;;2.85;;
74044;SDS011;62389;51.412;5.436;2024-01-15T03:24:21;4.75;;;2.25;;
74044;SDS011;62389;51.412;5.436;2024-01-15T03:26:47;7.93;;;2.58;;
74044;SDS011;62389;51.412;5.436;2024-01-15T03:29:12;8.32;;;2.90;;
74044;SDS011;62389;51.412;5.436;2024-01-15T03:31:37;6.65;;;2.50;;
74044;SDS011;62389;51.412;5.436;2024-01-15T03:34:03;7.32;;;3.30;;
74044;SDS011;62389;51.412;5.436;2024-01-15T03:36:28;5.82;;;2.72;;
74044;SDS011;62389;51.412;5.436;2024-01-15T03:38:54;9.43;;;2.50;;
74044;SDS011;62389;51.412;5.436;2024-01-15T03:41:19;8.05;;;2.25;;
74044;SDS011;62389;51.412;5.436;2024-01-15T03:43:44;6.47;;;2.70;;
74044;SDS011;62389;51.412;5.436;2024-01-15T03:46:10;8.82;;;2.00;;
74044;SDS011;62389;51.412;5.436;2024-01-15T03:48:35;3.17;;;1.88;;
74044;SDS011;62389;51.412;5.436;2024-01-15T03:51:01;6.65;;;1.92;;
74044;SDS011;62389;51.412;5.436;2024-01-15T03:53:26;9.20;;;2.55;;
74044;SDS011;62389;51.412;5.436;2024-01-15T03:55:51;6.85;;;1.80;;
74044;SDS011;62389;51.412;5.436;2024-01-15T03:58:17;9.18;;;2.90;;
74044;SDS011;62389;51.412;5.436;2024-01-15T04:00:43;5.03;;;1.88;;
74044;SDS011;62389;51.412;5.436;2024-01-15T04:03:08;6.22;;;1.50;;
74044;SDS011;62389;51.412;5.436;2024-01-15T04:05:34;6.35;;;1.10;;
74044;SDS011;62389;51.412;5.436;2024-01-15T04:07:59;6.22;;;1.83;;
74044;SDS011;62389;51.412;5.436;2024-01-15T04:10:24;4.50;;;1.50;;
74044;SDS011;62389;51.412;5.436;2024-01-15T04:12:50;4.60;;;1.50;;
74044;SDS011;62389;51.412;5.436;2024-01-15T04:15:15;10.40;;;1.60;;
74044;SDS011;62389;51.412;5.436;2024-01-15T04:17:41;3.03;;;0.98;;
74044;SDS011;62389;51.412;5.436;2024-01-15T04:20:06;5.82;;;1.65;;
74044;SDS011;62389;51.412;5.436;2024-01-15T04:22:33;2.47;;;0.75;;
74044;SDS011;62389;51.412;5.436;2024-01-15T04:25:00;3.22;;;1.02;;
74044;SDS011;62389;51.412;5.436;2024-01-15T04:27:25;6.47;;;1.48;;
74044;SDS011;62389;51.412;5.436;2024-01-15T04:29:50;4.20;;;0.98;;
74044;SDS011;62389;51.412;5.436;2024-01-15T04:32:16;3.53;;;1.15;;
74044;SDS011;62389;51.412;5.436;2024-01-15T04:34:41;2.67;;;0.98;;
74044;SDS011;62389;51.412;5.436;2024-01-15T04:37:06;5.20;;;1.10;;
74044;SDS011;62389;51.412;5.436;2024-01-15T04:39:32;2.17;;;1.45;;
74044;SDS011;62389;51.412;5.436;2024-01-15T04:41:57;2.42;;;1.10;;
74044;SDS011;62389;51.412;5.436;2024-01-15T04:44:23;1.92;;;0.70;;
74044;SDS011;62389;51.412;5.436;2024-01-15T04:46:48;3.75;;;1.20;;
74044;SDS011;62389;51.412;5.436;2024-01-15T04:49:13;3.85;;;1.25;;
74044;SDS011;62389;51.412;5.436;2024-01-15T04:51:39;2.97;;;1.65;;
74044;SDS011;62389;51.412;5.436;2024-01-15T04:54:04;6.18;;;1.27;;
74044;SDS011;62389;51.412;5.436;2024-01-15T04:56:29;3.90;;;1.10;;
74044;SDS011;62389;51.412;5.436;2024-01-15T04:58:55;3.10;;;1.95;;
74044;SDS011;62389;51.412;5.436;2024-01-15T05:01:20;4.03;;;1.38;;
74044;SDS011;62389;51.412;5.436;2024-01-15T05:03:46;2.70;;;1.42;;
74044;SDS011;62389;51.412;5.436;2024-01-15T05:06:11;1.80;;;0.75;;
74044;SDS011;62389;51.412;5.436;2024-01-15T05:08:36;9.40;;;1.50;;
74044;SDS011;62389;51.412;5.436;2024-01-15T05:11:02;1.67;;;0.88;;
74044;SDS011;62389;51.412;5.436;2024-01-15T05:13:27;3.30;;;1.30;;
74044;SDS011;62389;51.412;5.436;2024-01-15T05:15:53;6.53;;;1.48;;
74044;SDS011;62389;51.412;5.436;2024-01-15T05:18:18;4.72;;;1.10;;
74044;SDS011;62389;51.412;5.436;2024-01-15T05:20:44;8.45;;;1.35;;
74044;SDS011;62389;51.412;5.436;2024-01-15T05:23:09;2.97;;;1.17;;
74044;SDS011;62389;51.412;5.436;2024-01-15T05:25:34;5.35;;;1.20;;
74044;SDS011;62389;51.412;5.436;2024-01-15T05:28:00;1.48;;;0.73;;
74044;SDS011;62389;51.412;5.436;2024-01-15T05:30:25;4.30;;;1.70;;
74044;SDS011;62389;51.412;5.436;2024-01-15T05:32:50;6.45;;;1.35;;
74044;SDS011;62389;51.412;5.436;2024-01-15T05:35:16;3.60;;;1.10;;
74044;SDS011;62389;51.412;5.436;2024-01-15T05:37:43;2.83;;;0.90;;
74044;SDS011;62389;51.412;5.436;2024-01-15T05:40:12;7.20;;;1.35;;
74044;SDS011;62389;51.412;5.436;2024-01-15T05:42:38;2.38;;;1.30;;
74044;SDS011;62389;51.412;5.436;2024-01-15T05:45:04;3.90;;;1.25;;
74044;SDS011;62389;51.412;5.436;2024-01-15T05:47:30;8.65;;;1.13;;
74044;SDS011;62389;51.412;5.436;2024-01-15T05:49:56;4.07;;;1.40;;
74044;SDS011;62389;51.412;5.436;2024-01-15T05:52:22;11.80;;;2.15;;
74044;SDS011;62389;51.412;5.436;2024-01-15T05:54:48;5.95;;;1.63;;
74044;SDS011;62389;51.412;5.436;2024-01-15T05:57:14;5.68;;;1.58;;
74044;SDS011;62389;51.412;5.436;2024-01-15T05:59:39;7.53;;;2.00;;
74044;SDS011;62389;51.412;5.436;2024-01-15T06:02:04;4.03;;;1.92;;
74044;SDS011;62389;51.412;5.436;2024-01-15T06:04:30;7.93;;;2.00;;
74044;SDS011;62389;51.412;5.436;2024-01-15T06:06:55;8.30;;;2.47;;
74044;SDS011;62389;51.412;5.436;2024-01-15T06:09:20;10.02;;;1.95;;
74044;SDS011;62389;51.412;5.436;2024-01-15T06:11:46;4.45;;;1.70;;
74044;SDS011;62389;51.412;5.436;2024-01-15T06:14:11;7.35;;;2.33;;
74044;SDS011;62389;51.412;5.436;2024-01-15T06:16:36;8.93;;;2.22;;
74044;SDS011;62389;51.412;5.436;2024-01-15T06:19:02;6.88;;;2.28;;
74044;SDS011;62389;51.412;5.436;2024-01-15T06:21:28;7.13;;;2.05;;
74044;SDS011;62389;51.412;5.436;2024-01-15T06:23:53;8.65;;;1.85;;
74044;SDS011;62389;51.412;5.436;2024-01-15T06:26:19;5.30;;;2.08;;
74044;SDS011;62389;51.412;5.436;2024-01-15T06:28:44;5.22;;;2.03;;
74044;SDS011;62389;51.412;5.436;2024-01-15T06:31:09;7.95;;;2.83;;
74044;SDS011;62389;51.412;5.436;2024-01-15T06:33:35;6.35;;;2.88;;
74044;SDS011;62389;51.412;5.436;2024-01-15T06:36:00;4.55;;;2.63;;
74044;SDS011;62389;51.412;5.436;2024-01-15T06:38:26;8.70;;;3.70;;
74044;SDS011;62389;51.412;5.436;2024-01-15T06:40:51;6.47;;;3.38;;
74044;SDS011;62389;51.412;5.436;2024-01-15T06:43:17;8.73;;;3.85;;
74044;SDS011;62389;51.412;5.436;2024-01-15T06:45:42;7.20;;;3.42;;
74044;SDS011;62389;51.412;5.436;2024-01-15T06:48:08;7.63;;;3.47;;
74044;SDS011;62389;51.412;5.436;2024-01-15T06:50:34;8.38;;;3.47;;
74044;SDS011;62389;51.412;5.436;2024-01-15T06:52:59;9.95;;;3.33;;
74044;SDS011;62389;51.412;5.436;2024-01-15T06:55:25;11.05;;;4.38;;
74044;SDS011;62389;51.412;5.436;2024-01-15T06:57:50;8.50;;;4.22;;
74044;SDS011;62389;51.412;5.436;2024-01-15T07:00:19;8.52;;;4.28;;
74044;SDS011;62389;51.412;5.436;2024-01-15T07:02:47;7.65;;;3.20;;
74044;SDS011;62389;51.412;5.436;2024-01-15T07:05:13;6.15;;;3.28;;
74044;SDS011;62389;51.412;5.436;2024-01-15T07:07:38;7.40;;;2.15;;
74044;SDS011;62389;51.412;5.436;2024-01-15T07:10:04;5.30;;;2.58;;
74044;SDS011;62389;51.412;5.436;2024-01-15T07:12:31;3.67;;;2.22;;
74044;SDS011;62389;51.412;5.436;2024-01-15T07:14:56;3.60;;;2.00;;
74044;SDS011;62389;51.412;5.436;2024-01-15T07:17:21;3.88;;;2.00;;
74044;SDS011;62389;51.412;5.436;2024-01-15T07:19:47;2.72;;;1.52;;
74044;SDS011;62389;51.412;5.436;2024-01-15T07:22:12;3.85;;;2.15;;
74044;SDS011;62389;51.412;5.436;2024-01-15T07:24:38;4.57;;;2.28;;
74044;SDS011;62389;51.412;5.436;2024-01-15T07:27:03;3.33;;;2.10;;
74044;SDS011;62389;51.412;5.436;2024-01-15T07:29:30;3.30;;;1.80;;
74044;SDS011;62389;51.412;5.436;2024-01-15T07:31:56;4.40;;;2.72;;
74044;SDS011;62389;51.412;5.436;2024-01-15T07:34:21;3.45;;;1.90;;
74044;SDS011;62389;51.412;5.436;2024-01-15T07:36:47;3.33;;;1.95;;
74044;SDS011;62389;51.412;5.436;2024-01-15T07:39:12;5.47;;;2.42;;
74044;SDS011;62389;51.412;5.436;2024-01-15T07:41:38;4.18;;;2.17;;
74044;SDS011;62389;51.412;5.436;2024-01-15T07:44:04;6.65;;;3.00;;
74044;SDS011;62389;51.412;5.436;2024-01-15T07:46:30;4.18;;;2.50;;
74044;SDS011;62389;51.412;5.436;2024-01-15T07:48:55;7.88;;;3.53;;
74044;SDS011;62389;51.412;5.436;2024-01-15T07:51:23;5.07;;;2.65;;
74044;SDS011;62389;51.412;5.436;2024-01-15T07:53:49;5.03;;;2.50;;
74044;SDS011;62389;51.412;5.436;2024-01-15T07:56:15;6.55;;;3.42;;
74044;SDS011;62389;51.412;5.436;2024-01-15T07:58:41;7.13;;;3.08;;
74044;SDS011;62389;51.412;5.436;2024-01-15T08:01:06;6.30;;;3.17;;
74044;SDS011;62389;51.412;5.436;2024-01-15T08:03:32;7.32;;;3.53;;
74044;SDS011;62389;51.412;5.436;2024-01-15T08:05:57;5.18;;;2.90;;
74044;SDS011;62389;51.412;5.436;2024-01-15T08:08:24;5.25;;;2.70;;
74044;SDS011;62389;51.412;5.436;2024-01-15T08:10:51;6.00;;;2.67;;
74044;SDS011;62389;51.412;5.436;2024-01-15T08:13:17;4.93;;;2.85;;
74044;SDS011;62389;51.412;5.436;2024-01-15T08:15:42;4.65;;;2.75;;
74044;SDS011;62389;51.412;5.436;2024-01-15T08:18:07;4.93;;;2.50;;
74044;SDS011;62389;51.412;5.436;2024-01-15T08:20:34;6.43;;;2.55;;
74044;SDS011;62389;51.412;5.436;2024-01-15T08:22:59;7.43;;;3.47;;
74044;SDS011;62389;51.412;5.436;2024-01-15T08:25:25;7.60;;;3.53;;
74044;SDS011;62389;51.412;5.436;2024-01-15T08:27:51;5.38;;;2.97;;
74044;SDS011;62389;51.412;5.436;2024-01-15T08:30:17;6.18;;;3.55;;
74044;SDS011;62389;51.412;5.436;2024-01-15T08:32:43;5.00;;;2.90;;
74044;SDS011;62389;51.412;5.436;2024-01-15T08:35:09;5.22;;;2.33;;
74044;SDS011;62389;51.412;5.436;2024-01-15T08:37:35;3.05;;;1.55;;
74044;SDS011;62389;51.412;5.436;2024-01-15T08:40:00;3.30;;;1.67;;
74044;SDS011;62389;51.412;5.436;2024-01-15T08:42:26;2.45;;;1.30;;
74044;SDS011;62389;51.412;5.436;2024-01-15T08:44:51;2.83;;;1.23;;
74044;SDS011;62389;51.412;5.436;2024-01-15T08:47:16;1.73;;;0.90;;
74044;SDS011;62389;51.412;5.436;2024-01-15T08:49:42;2.20;;;1.15;;
74044;SDS011;62389;51.412;5.436;2024-01-15T08:52:09;2.97;;;0.88;;
74044;SDS011;62389;51.412;5.436;2024-01-15T08:54:34;2.33;;;0.93;;
74044;SDS011;62389;51.412;5.436;2024-01-15T08:57:00;1.48;;;0.82;;
74044;SDS011;62389;51.412;5.436;2024-01-15T08:59:25;2.28;;;0.63;;
74044;SDS011;62389;51.412;5.436;2024-01-15T09:01:54;2.55;;;0.90;;
74044;SDS011;62389;51.412;5.436;2024-01-15T09:04:22;1.67;;;0.63;;
74044;SDS011;62389;51.412;5.436;2024-01-15T09:06:48;3.03;;;0.77;;
74044;SDS011;62389;51.412;5.436;2024-01-15T09:09:13;3.83;;;1.00;;
74044;SDS011;62389;51.412;5.436;2024-01-15T09:11:40;3.97;;;1.00;;
74044;SDS011;62389;51.412;5.436;2024-01-15T09:14:05;4.28;;;1.20;;
74044;SDS011;62389;51.412;5.436;2024-01-15T09:16:31;4.35;;;1.00;;
74044;SDS011;62389;51.412;5.436;2024-01-15T09:18:56;2.13;;;0.93;;
74044;SDS011;62389;51.412;5.436;2024-01-15T09:21:22;2.53;;;1.00;;
74044;SDS011;62389;51.412;5.436;2024-01-15T09:23:49;3.63;;;1.10;;
74044;SDS011;62389;51.412;5.436;2024-01-15T09:26:15;4.85;;;1.60;;
74044;SDS011;62389;51.412;5.436;2024-01-15T09:28:40;3.53;;;1.42;;
74044;SDS011;62389;51.412;5.436;2024-01-15T09:31:05;5.10;;;1.77;;
74044;SDS011;62389;51.412;5.436;2024-01-15T09:33:31;3.75;;;1.73;;
74044;SDS011;62389;51.412;5.436;2024-01-15T09:35:56;3.05;;;1.73;;
74044;SDS011;62389;51.412;5.436;2024-01-15T09:38:21;5.78;;;2.28;;
74044;SDS011;62389;51.412;5.436;2024-01-15T09:40:49;3.50;;;2.00;;
74044;SDS011;62389;51.412;5.436;2024-01-15T09:43:14;3.22;;;1.75;;
74044;SDS011;62389;51.412;5.436;2024-01-15T09:45:41;3.33;;;1.80;;
74044;SDS011;62389;51.412;5.436;2024-01-15T09:48:07;4.82;;;1.70;;
74044;SDS011;62389;51.412;5.436;2024-01-15T09:50:33;3.95;;;2.45;;
74044;SDS011;62389;51.412;5.436;2024-01-15T09:52:59;3.35;;;1.88;;
74044;SDS011;62389;51.412;5.436;2024-01-15T09:55:25;4.78;;;1.92;;
74044;SDS011;62389;51.412;5.436;2024-01-15T09:57:51;6.28;;;3.10;;
74044;SDS011;62389;51.412;5.436;2024-01-15T10:00:18;5.63;;;3.08;;
74044;SDS011;62389;51.412;5.436;2024-01-15T10:02:44;5.40;;;2.85;;
74044;SDS011;62389;51.412;5.436;2024-01-15T10:05:10;4.93;;;3.03;;
74044;SDS011;62389;51.412;5.436;2024-01-15T10:07:35;5.10;;;2.85;;
74044;SDS011;62389;51.412;5.436;2024-01-15T10:10:02;4.32;;;2.53;;
74044;SDS011;62389;51.412;5.436;2024-01-15T10:12:28;5.22;;;2.53;;
74044;SDS011;62389;51.412;5.436;2024-01-15T10:14:55;4.82;;;2.35;;
74044;SDS011;62389;51.412;5.436;2024-01-15T10:17:21;7.97;;;3.53;;
74044;SDS011;62389;51.412;5.436;2024-01-15T10:19:47;9.35;;;3.10;;
74044;SDS011;62389;51.412;5.436;2024-01-15T10:22:13;7.30;;;3.17;;
74044;SDS011;62389;51.412;5.436;2024-01-15T10:24:40;6.05;;;2.67;;
74044;SDS011;62389;51.412;5.436;2024-01-15T10:27:06;4.60;;;2.75;;
74044;SDS011;62389;51.412;5.436;2024-01-15T10:29:32;4.25;;;1.90;;
74044;SDS011;62389;51.412;5.436;2024-01-15T10:31:58;5.57;;;2.90;;
74044;SDS011;62389;51.412;5.436;2024-01-15T10:34:24;7.90;;;3.20;;
74044;SDS011;62389;51.412;5.436;2024-01-15T10:36:50;9.65;;;2.97;;
74044;SDS011;62389;51.412;5.436;2024-01-15T10:39:20;6.82;;;3.20;;
74044;SDS011;62389;51.412;5.436;2024-01-15T10:41:46;6.00;;;3.35;;
74044;SDS011;62389;51.412;5.436;2024-01-15T10:44:12;6.30;;;2.65;;
74044;SDS011;62389;51.412;5.436;2024-01-15T10:46:37;7.15;;;3.13;;
74044;SDS011;62389;51.412;5.436;2024-01-15T10:49:04;6.78;;;3.72;;
74044;SDS011;62389;51.412;5.436;2024-01-15T10:51:29;7.68;;;3.15;;
74044;SDS011;62389;51.412;5.436;2024-01-15T10:53:56;5.53;;;2.88;;
74044;SDS011;62389;51.412;5.436;2024-01-15T10:56:22;7.03;;;4.22;;
74044;SDS011;62389;51.412;5.436;2024-01-15T10:58:49;16.15;;;4.38;;
74044;SDS011;62389;51.412;5.436;2024-01-15T11:01:15;12.68;;;4.10;;
74044;SDS011;62389;51.412;5.436;2024-01-15T11:03:42;8.45;;;3.90;;
74044;SDS011;62389;51.412;5.436;2024-01-15T11:06:18;8.30;;;3.80;;
74044;SDS011;62389;51.412;5.436;2024-01-15T11:08:50;7.63;;;3.10;;
74044;SDS011;62389;51.412;5.436;2024-01-15T11:11:17;3.88;;;2.30;;
74044;SDS011;62389;51.412;5.436;2024-01-15T11:13:43;10.50;;;3.22;;
74044;SDS011;62389;51.412;5.436;2024-01-15T11:16:12;5.85;;;2.47;;
74044;SDS011;62389;51.412;5.436;2024-01-15T11:18:43;4.43;;;2.15;;
74044;SDS011;62389;51.412;5.436;2024-01-15T11:21:26;3.85;;;1.85;;
74044;SDS011;62389;51.412;5.436;2024-01-15T11:23:55;5.60;;;2.15;;
74044;SDS011;62389;51.412;5.436;2024-01-15T11:26:35;4.20;;;1.95;;
74044;SDS011;62389;51.412;5.436;2024-01-15T11:29:28;4.13;;;1.92;;
74044;SDS011;62389;51.412;5.436;2024-01-15T11:34:19;2.87;;;1.40;;
74044;SDS011;62389;51.412;5.436;2024-01-15T11:41:57;3.40;;;1.42;;
74044;SDS011;62389;51.412;5.436;2024-01-15T11:44:24;1.70;;;0.95;;
74044;SDS011;62389;51.412;5.436;2024-01-15T11:46:57;2.28;;;1.10;;
74044;SDS011;62389;51.412;5.436;2024-01-15T11:52:33;2.45;;;1.27;;
74044;SDS011;62389;51.412;5.436;2024-01-15T11:55:14;2.70;;;1.20;;
74044;SDS011;62389;51.412;5.436;2024-01-15T11:57:53;2.83;;;1.30;;
74044;SDS011;62389;51.412;5.436;2024-01-15T12:00:20;4.82;;;2.05;;
74044;SDS011;62389;51.412;5.436;2024-01-15T12:02:46;3.85;;;2.30;;
74044;SDS011;62389;51.412;5.436;2024-01-15T12:05:17;4.18;;;2.10;;
74044;SDS011;62389;51.412;5.436;2024-01-15T12:07:45;4.68;;;2.53;;
74044;SDS011;62389;51.412;5.436;2024-01-15T12:10:13;2.47;;;1.63;;
74044;SDS011;62389;51.412;5.436;2024-01-15T12:12:44;4.38;;;2.47;;
74044;SDS011;62389;51.412;5.436;2024-01-15T12:15:12;4.55;;;2.45;;
74044;SDS011;62389;51.412;5.436;2024-01-15T12:17:38;5.63;;;2.20;;
74044;SDS011;62389;51.412;5.436;2024-01-15T12:20:04;4.53;;;2.45;;
74044;SDS011;62389;51.412;5.436;2024-01-15T12:22:30;2.67;;;1.65;;
74044;SDS011;62389;51.412;5.436;2024-01-15T12:24:55;3.88;;;1.67;;
74044;SDS011;62389;51.412;5.436;2024-01-15T12:27:21;2.83;;;1.40;;
74044;SDS011;62389;51.412;5.436;2024-01-15T12:29:46;2.40;;;2.08;;
74044;SDS011;62389;51.412;5.436;2024-01-15T12:32:12;3.25;;;1.70;;
74044;SDS011;62389;51.412;5.436;2024-01-15T12:34:38;2.60;;;1.38;;
74044;SDS011;62389;51.412;5.436;2024-01-15T12:37:03;2.33;;;1.10;;
74044;SDS011;62389;51.412;5.436;2024-01-15T12:39:29;2.08;;;1.52;;
74044;SDS011;62389;51.412;5.436;2024-01-15T12:41:54;2.17;;;1.10;;
74044;SDS011;62389;51.412;5.436;2024-01-15T12:44:20;4.47;;;1.98;;
74044;SDS011;62389;51.412;5.436;2024-01-15T12:46:45;3.22;;;1.40;;
74044;SDS011;62389;51.412;5.436;2024-01-15T12:49:11;4.28;;;1.75;;
74044;SDS011;62389;51.412;5.436;2024-01-15T12:51:38;3.20;;;1.55;;
74044;SDS011;62389;51.412;5.436;2024-01-15T12:54:03;3.25;;;1.75;;
74044;SDS011;62389;51.412;5.436;2024-01-15T12:56:29;5.13;;;2.00;;
74044;SDS011;62389;51.412;5.436;2024-01-15T12:58:54;1.63;;;0.95;;
74044;SDS011;62389;51.412;5.436;2024-01-15T13:01:20;2.63;;;1.40;;
74044;SDS011;62389;51.412;5.436;2024-01-15T13:03:46;2.33;;;1.38;;
74044;SDS011;62389;51.412;5.436;2024-01-15T13:06:12;2.10;;;1.20;;
74044;SDS011;62389;51.412;5.436;2024-01-15T13:08:37;4.72;;;1.52;;
74044;SDS011;62389;51.412;5.436;2024-01-15T13:11:03;2.95;;;1.75;;
74044;SDS011;62389;51.412;5.436;2024-01-15T13:13:28;2.25;;;1.15;;
74044;SDS011;62389;51.412;5.436;2024-01-15T13:15:55;2.42;;;1.55;;
74044;SDS011;62389;51.412;5.436;2024-01-15T13:18:21;3.05;;;1.13;;
74044;SDS011;62389;51.412;5.436;2024-01-15T13:20:46;3.55;;;1.40;;
74044;SDS011;62389;51.412;5.436;2024-01-15T13:23:12;1.73;;;1.23;;
74044;SDS011;62389;51.412;5.436;2024-01-15T13:25:37;3.20;;;1.10;;
74044;SDS011;62389;51.412;5.436;2024-01-15T13:28:04;1.13;;;0.93;;
74044;SDS011;62389;51.412;5.436;2024-01-15T13:30:30;2.30;;;1.27;;
74044;SDS011;62389;51.412;5.436;2024-01-15T13:32:56;2.08;;;1.23;;
74044;SDS011;62389;51.412;5.436;2024-01-15T13:35:22;3.22;;;1.17;;
74044;SDS011;62389;51.412;5.436;2024-01-15T13:37:48;3.13;;;1.17;;
74044;SDS011;62389;51.412;5.436;2024-01-15T13:40:13;6.28;;;1.92;;
74044;SDS011;62389;51.412;5.436;2024-01-15T13:42:45;2.90;;;1.65;;
74044;SDS011;62389;51.412;5.436;2024-01-15T13:45:11;2.20;;;1.48;;
74044;SDS011;62389;51.412;5.436;2024-01-15T13:47:39;3.63;;;1.73;;
74044;SDS011;62389;51.412;5.436;2024-01-15T13:50:05;4.53;;;1.92;;
74044;SDS011;62389;51.412;5.436;2024-01-15T13:52:31;5.03;;;2.20;;
74044;SDS011;62389;51.412;5.436;2024-01-15T13:54:57;4.50;;;2.92;;
74044;SDS011;62389;51.412;5.436;2024-01-15T13:57:22;4.78;;;2.63;;
74044;SDS011;62389;51.412;5.436;2024-01-15T13:59:47;5.70;;;2.75;;
74044;SDS011;62389;51.412;5.436;2024-01-15T14:02:14;5.88;;;2.30;;
74044;SDS011;62389;51.412;5.436;2024-01-15T14:04:40;5.32;;;2.30;;
74044;SDS011;62389;51.412;5.436;2024-01-15T14:07:06;2.85;;;1.98;;
74044;SDS011;62389;51.412;5.436;2024-01-15T14:09:31;3.90;;;2.03;;
74044;SDS011;62389;51.412;5.436;2024-01-15T14:11:57;3.83;;;2.28;;
74044;SDS011;62389;51.412;5.436;2024-01-15T14:14:22;5.40;;;2.28;;
74044;SDS011;62389;51.412;5.436;2024-01-15T14:16:48;3.53;;;2.10;;
74044;SDS011;62389;51.412;5.436;2024-01-15T14:19:14;5.43;;;2.03;;
74044;SDS011;62389;51.412;5.436;2024-01-15T14:21:40;3.05;;;2.00;;
74044;SDS011;62389;51.412;5.436;2024-01-15T14:24:05;5.38;;;1.58;;
74044;SDS011;62389;51.412;5.436;2024-01-15T14:26:31;4.15;;;2.05;;
74044;SDS011;62389;51.412;5.436;2024-01-15T14:28:57;3.90;;;1.20;;
74044;SDS011;62389;51.412;5.436;2024-01-15T14:31:23;2.35;;;0.95;;
74044;SDS011;62389;51.412;5.436;2024-01-15T14:33:51;4.68;;;1.33;;
74044;SDS011;62389;51.412;5.436;2024-01-15T14:36:17;3.45;;;1.50;;
74044;SDS011;62389;51.412;5.436;2024-01-15T14:38:42;4.85;;;1.45;;
74044;SDS011;62389;51.412;5.436;2024-01-15T14:41:08;2.35;;;1.38;;
74044;SDS011;62389;51.412;5.436;2024-01-15T14:43:33;5.50;;;1.45;;
74044;SDS011;62389;51.412;5.436;2024-01-15T14:45:58;2.95;;;1.52;;
74044;SDS011;62389;51.412;5.436;2024-01-15T14:48:24;6.28;;;2.63;;